Oxford, Arkansas
Current Conditions -  °F | °C
As of 8:04 AM on Friday 24 Oct 2014 (Local Time) from KBPK Reporting Station
Haze Haze  
Wind Chill: 47°   Ceiling: Unl
Heat Index: 47°   Visibility: 1.2mi
Dew Point: 47°   Wind: 0mph
Humidity: 100%   Direction: NA
Pressure: 30.13"   Gusts: NA
Location:  36.22°N, 91.93°W
Report Text: KBPK 241304Z AUTO 00000KT 1 1/4SM BR FEW002 08/08 A3013 RMK AO2 T00830083
Loading
Personal Weather Stations






























Interactive Weather Map
Tropical Storm Tracking
New forecast layout! Learn more

10-Day Weather Forecast

Advertisements
Track Severe Weather on mobile